Maresias, Brazil
Current Conditions -  °F | °C
As of 6:00 PM on Friday 21 Nov 2014 (Local Time) from SBSJ Reporting Station
Thunderstorm Thunderstorm  
Wind Chill: 77°   Ceiling: 2000
Heat Index: 78°   Visibility: 2.8mi
Dew Point: 72°   Wind: 10mph
Humidity: 83%   Direction: 180°S
Pressure: 29.97"   Gusts: NA
Location:  23.8°S, 45.55°W
Report Text: SBSJ 212000Z 18009KT 4500 -TSRA BR SCT008 BKN020 FEW030CB BKN07 0 25/22 Q1015
Loading
Personal Weather Stations






























Interactive Weather Map New forecast layout! Learn more

10-Day Weather Forecast

Advertisements
Track Severe Weather on mobile